createdAt,value
2022-08-31T00:00:13.752Z,20.86
2022-08-31T00:02:59.408Z,20.82
2022-08-31T00:05:26.366Z,20.78
2022-08-31T00:07:55.486Z,20.77
2022-08-31T00:10:32.334Z,20.71
2022-08-31T00:13:06.773Z,20.66
2022-08-31T00:15:35.595Z,20.62
2022-08-31T00:18:03.599Z,20.60
2022-08-31T00:20:33.784Z,20.54
2022-08-31T00:23:06.360Z,20.51
2022-08-31T00:25:34.354Z,20.49
2022-08-31T00:28:01.940Z,20.43
2022-08-31T00:30:29.916Z,20.39
2022-08-31T00:32:58.447Z,20.35
2022-08-31T00:35:27.577Z,20.33
2022-08-31T00:37:54.713Z,20.34
2022-08-31T00:40:21.901Z,20.37
2022-08-31T00:42:51.493Z,20.33
2022-08-31T00:45:18.848Z,20.33
2022-08-31T00:47:45.666Z,20.33
2022-08-31T00:50:15.329Z,20.33
2022-08-31T00:52:46.647Z,20.32
2022-08-31T00:55:18.129Z,20.30
2022-08-31T00:57:48.083Z,20.26
2022-08-31T01:00:19.267Z,20.26
2022-08-31T01:02:47.058Z,20.25
2022-08-31T01:05:14.986Z,20.24
2022-08-31T01:07:42.523Z,20.23
2022-08-31T01:10:10.677Z,20.20
2022-08-31T01:12:37.838Z,20.20
2022-08-31T01:15:08.717Z,20.23
2022-08-31T01:17:36.735Z,20.16
2022-08-31T01:20:12.367Z,20.12
2022-08-31T01:22:44.923Z,20.06
2022-08-31T01:25:13.696Z,19.98
2022-08-31T01:27:40.835Z,19.93
2022-08-31T01:30:11.421Z,19.92
2022-08-31T01:32:39.983Z,19.89
2022-08-31T01:35:07.621Z,19.90
2022-08-31T01:37:39.054Z,19.88
2022-08-31T01:40:07.478Z,19.83
2022-08-31T01:42:34.616Z,19.80
2022-08-31T01:45:02.528Z,19.81
2022-08-31T01:47:31.887Z,19.78
2022-08-31T01:49:58.732Z,19.77
2022-08-31T01:52:28.020Z,19.73
2022-08-31T01:54:55.966Z,19.65
2022-08-31T01:57:30.879Z,19.58
2022-08-31T02:00:05.632Z,19.53
2022-08-31T02:02:32.642Z,19.50
2022-08-31T02:04:59.623Z,19.51
2022-08-31T02:07:27.103Z,19.53
2022-08-31T02:09:54.779Z,19.49
2022-08-31T02:12:21.671Z,19.47
2022-08-31T02:14:48.640Z,19.44
2022-08-31T02:17:16.400Z,19.42
2022-08-31T02:19:43.386Z,19.33
2022-08-31T02:22:10.260Z,19.30
2022-08-31T02:24:37.094Z,19.28
2022-08-31T02:27:04.116Z,19.28
2022-08-31T02:29:31.215Z,19.30
2022-08-31T02:31:58.679Z,19.24
2022-08-31T02:34:25.617Z,19.15
2022-08-31T02:36:52.724Z,19.13
2022-08-31T02:39:19.911Z,19.12
2022-08-31T02:41:47.348Z,19.08
2022-08-31T02:44:14.567Z,19.05
2022-08-31T02:46:44.577Z,19.03
2022-08-31T02:49:11.494Z,19.05
2022-08-31T02:51:42.446Z,19.06
2022-08-31T02:54:09.476Z,19.00
2022-08-31T02:56:36.448Z,18.96
2022-08-31T02:59:03.667Z,18.94
2022-08-31T03:01:30.607Z,18.94
2022-08-31T03:03:57.709Z,18.92
2022-08-31T03:06:24.493Z,18.92
2022-08-31T03:08:51.422Z,18.93
2022-08-31T03:11:19.343Z,18.97
2022-08-31T03:13:46.314Z,18.98
2022-08-31T03:16:15.156Z,19.03
2022-08-31T03:18:42.449Z,19.02
2022-08-31T03:21:09.282Z,19.04
2022-08-31T03:23:36.887Z,19.10
2022-08-31T03:26:05.883Z,19.11
2022-08-31T03:28:34.432Z,19.17
2022-08-31T03:31:01.510Z,19.17
2022-08-31T03:33:28.495Z,19.19
2022-08-31T03:35:55.361Z,19.16
2022-08-31T03:38:22.125Z,19.17
2022-08-31T03:40:50.935Z,19.10
2022-08-31T03:43:18.049Z,19.07
2022-08-31T03:45:44.893Z,19.07
2022-08-31T03:48:13.171Z,19.07
2022-08-31T03:50:41.600Z,19.09
2022-08-31T03:53:09.483Z,19.10
2022-08-31T03:55:39.283Z,19.18
2022-08-31T03:58:07.479Z,19.22
2022-08-31T04:00:34.976Z,19.15
2022-08-31T04:03:02.433Z,19.17
2022-08-31T04:05:31.170Z,19.24
2022-08-31T04:07:58.495Z,19.22
2022-08-31T04:10:25.324Z,19.21
2022-08-31T04:12:52.493Z,19.23
2022-08-31T04:15:20.459Z,19.29
2022-08-31T04:17:47.877Z,19.37
2022-08-31T04:20:16.511Z,19.40
2022-08-31T04:22:43.391Z,19.45
2022-08-31T04:25:10.560Z,19.56
2022-08-31T04:27:40.473Z,19.56
2022-08-31T04:30:09.478Z,19.59
2022-08-31T04:32:36.499Z,19.64
2022-08-31T04:35:04.427Z,19.89
2022-08-31T04:37:43.410Z,20.28
2022-08-31T04:40:20.384Z,20.41
2022-08-31T04:42:52.656Z,20.48
2022-08-31T04:45:19.537Z,20.52
2022-08-31T04:47:46.435Z,20.55
2022-08-31T04:50:16.637Z,20.59
2022-08-31T04:52:45.205Z,20.69
2022-08-31T04:55:30.571Z,20.92
2022-08-31T04:57:57.492Z,21.09
2022-08-31T05:00:24.938Z,21.36
2022-08-31T05:02:53.587Z,21.51
2022-08-31T05:05:20.406Z,21.38
2022-08-31T05:07:47.306Z,21.32
2022-08-31T05:10:15.107Z,21.08
2022-08-31T05:12:41.939Z,20.96
2022-08-31T05:15:09.050Z,20.92
2022-08-31T05:17:35.992Z,20.85
2022-08-31T05:20:05.397Z,20.65
2022-08-31T05:22:32.503Z,20.60
2022-08-31T05:24:59.524Z,20.64
2022-08-31T05:27:26.363Z,20.77
2022-08-31T05:29:53.292Z,20.79
2022-08-31T05:32:20.091Z,20.77
2022-08-31T05:34:47.111Z,20.70
2022-08-31T05:37:13.983Z,20.58
2022-08-31T05:39:41.000Z,20.52
2022-08-31T05:42:07.892Z,20.46
2022-08-31T05:44:36.315Z,20.33
2022-08-31T05:47:07.105Z,20.16
2022-08-31T05:49:35.214Z,20.01
2022-08-31T05:52:03.071Z,19.87
2022-08-31T05:54:30.226Z,19.79
2022-08-31T05:56:59.905Z,19.74
2022-08-31T05:59:29.705Z,19.72
2022-08-31T06:01:57.458Z,19.68
2022-08-31T06:04:24.516Z,19.67
2022-08-31T06:06:52.346Z,19.67
2022-08-31T06:09:19.616Z,19.63
2022-08-31T06:11:46.935Z,19.69
2022-08-31T06:14:13.850Z,19.72
2022-08-31T06:16:44.441Z,19.83
2022-08-31T06:19:11.778Z,19.91
2022-08-31T06:21:49.941Z,20.01
2022-08-31T06:24:18.710Z,20.16
2022-08-31T06:26:56.835Z,20.48
2022-08-31T06:29:25.242Z,20.86
2022-08-31T06:31:52.285Z,21.26
2022-08-31T06:34:20.367Z,21.35
2022-08-31T06:36:49.852Z,21.39
2022-08-31T06:39:17.043Z,21.21
2022-08-31T06:41:44.057Z,21.05
2022-08-31T06:44:14.149Z,20.89
2022-08-31T06:46:42.258Z,20.73
2022-08-31T06:49:14.916Z,20.72
2022-08-31T06:51:41.982Z,20.91
2022-08-31T06:54:28.576Z,21.25
2022-08-31T06:57:00.302Z,21.24
2022-08-31T06:59:29.790Z,21.47
2022-08-31T07:02:01.650Z,21.52
2022-08-31T07:04:34.801Z,21.33
2022-08-31T07:07:03.690Z,21.20
2022-08-31T07:09:30.601Z,21.47
2022-08-31T07:11:57.476Z,22.17
2022-08-31T07:14:26.983Z,22.99
2022-08-31T07:16:56.801Z,23.36
2022-08-31T07:19:25.095Z,23.32
2022-08-31T07:21:54.885Z,23.41
2022-08-31T07:24:25.889Z,23.16
2022-08-31T07:27:04.537Z,23.04
2022-08-31T07:29:37.803Z,22.78
2022-08-31T07:32:04.785Z,22.38
2022-08-31T07:34:33.784Z,22.12
2022-08-31T07:37:19.757Z,21.82
2022-08-31T07:40:07.743Z,21.59
2022-08-31T07:42:39.737Z,21.54
2022-08-31T07:45:12.659Z,21.42
2022-08-31T07:47:47.180Z,21.30
2022-08-31T07:50:17.388Z,21.22
2022-08-31T07:52:54.373Z,21.10
2022-08-31T07:55:23.625Z,20.92
2022-08-31T07:57:53.554Z,20.82
2022-08-31T08:00:29.095Z,20.69
2022-08-31T08:02:56.894Z,20.51
2022-08-31T08:05:28.811Z,20.38
2022-08-31T08:08:11.868Z,20.35
2022-08-31T08:10:46.643Z,20.50
2022-08-31T08:13:20.453Z,20.77
2022-08-31T08:15:52.094Z,20.91
2022-08-31T08:18:19.588Z,20.90
2022-08-31T08:20:46.768Z,20.96
2022-08-31T08:23:18.299Z,21.06
2022-08-31T08:25:48.056Z,21.06
2022-08-31T08:31:05.940Z,21.21
2022-08-31T08:33:35.439Z,21.50
2022-08-31T08:36:07.928Z,21.59
2022-08-31T08:38:39.308Z,21.58
2022-08-31T08:41:13.239Z,21.55
2022-08-31T08:43:43.890Z,21.71
2022-08-31T08:46:31.728Z,21.73
2022-08-31T08:49:15.198Z,21.70
2022-08-31T08:51:42.991Z,21.64
2022-08-31T08:54:19.401Z,21.88
2022-08-31T08:56:49.420Z,22.35
2022-08-31T08:59:19.992Z,23.08
2022-08-31T09:01:51.571Z,23.76
2022-08-31T09:04:18.408Z,24.77
2022-08-31T09:07:09.351Z,25.88
2022-08-31T09:09:57.503Z,25.86
2022-08-31T09:12:31.912Z,24.97
2022-08-31T09:15:28.436Z,24.52
2022-08-31T09:18:13.720Z,24.17
2022-08-31T09:20:41.361Z,23.78
2022-08-31T09:23:08.269Z,23.27
2022-08-31T09:25:59.072Z,22.74
2022-08-31T09:28:36.139Z,22.19
2022-08-31T09:31:03.818Z,21.92
2022-08-31T09:33:34.531Z,21.82
2022-08-31T09:36:18.430Z,21.73
2022-08-31T09:38:47.231Z,21.97
2022-08-31T09:41:29.065Z,22.37
2022-08-31T09:44:47.825Z,22.52
2022-08-31T09:47:30.623Z,23.24
2022-08-31T09:49:58.047Z,24.07
2022-08-31T09:52:50.014Z,24.84
2022-08-31T09:55:25.004Z,25.14
2022-08-31T09:58:03.138Z,24.78
2022-08-31T10:00:39.926Z,24.65
2022-08-31T10:03:09.961Z,24.43
2022-08-31T10:05:43.625Z,24.43
2022-08-31T10:08:33.946Z,24.37
2022-08-31T10:11:12.488Z,24.17
2022-08-31T10:13:46.456Z,24.12
2022-08-31T10:16:30.551Z,23.88
2022-08-31T10:19:06.638Z,23.36
2022-08-31T10:21:44.106Z,23.06
2022-08-31T10:24:33.744Z,22.91
2022-08-31T10:27:31.606Z,23.39
2022-08-31T10:30:02.897Z,23.42
2022-08-31T10:32:53.375Z,23.76
2022-08-31T10:35:46.972Z,23.98
2022-08-31T10:38:26.422Z,24.19
2022-08-31T10:41:11.957Z,24.03
2022-08-31T10:43:49.108Z,24.20
2022-08-31T10:46:16.752Z,24.29
2022-08-31T10:48:47.359Z,24.31
2022-08-31T10:51:22.480Z,24.38
2022-08-31T10:54:28.929Z,24.20
2022-08-31T10:57:21.398Z,23.92
2022-08-31T10:59:55.828Z,23.44
2022-08-31T11:02:55.663Z,22.53
2022-08-31T11:05:30.214Z,21.67
2022-08-31T11:08:32.208Z,21.58
2022-08-31T11:11:00.679Z,21.81
2022-08-31T11:13:51.330Z,21.97
2022-08-31T11:16:36.788Z,22.27
2022-08-31T11:19:19.708Z,22.50
2022-08-31T11:22:08.367Z,22.57
2022-08-31T11:25:03.492Z,22.36
2022-08-31T11:27:39.781Z,21.86
2022-08-31T11:30:26.908Z,21.71
2022-08-31T11:32:59.716Z,21.97
2022-08-31T11:36:20.252Z,22.18
2022-08-31T11:39:05.565Z,22.40
2022-08-31T11:41:51.676Z,22.57
2022-08-31T11:44:30.997Z,22.43
2022-08-31T11:47:29.270Z,22.25
2022-08-31T11:50:04.048Z,22.21
2022-08-31T11:52:48.634Z,22.00
2022-08-31T11:55:23.590Z,21.74
2022-08-31T11:58:10.279Z,21.46
2022-08-31T12:00:57.456Z,21.15
2022-08-31T12:03:38.779Z,21.01
2022-08-31T12:06:09.249Z,20.82
2022-08-31T12:08:52.536Z,20.57
2022-08-31T12:11:37.236Z,20.40
2022-08-31T12:14:29.648Z,20.23
2022-08-31T12:17:09.724Z,20.18
2022-08-31T12:20:02.439Z,20.31
2022-08-31T12:23:30.061Z,20.73
2022-08-31T12:26:24.223Z,21.02
2022-08-31T12:28:51.012Z,21.02
2022-08-31T12:31:18.808Z,21.00
2022-08-31T12:34:08.266Z,20.92
2022-08-31T12:36:36.664Z,20.90
2022-08-31T12:39:10.045Z,20.85
2022-08-31T12:41:47.155Z,20.69
2022-08-31T12:44:45.614Z,20.67
2022-08-31T12:47:43.299Z,20.51
2022-08-31T12:50:37.825Z,20.47
2022-08-31T12:53:13.824Z,20.43
2022-08-31T12:55:46.735Z,20.51
2022-08-31T12:58:53.172Z,20.53
2022-08-31T13:01:24.107Z,20.63
2022-08-31T13:03:55.171Z,20.49
2022-08-31T13:06:36.542Z,20.33
2022-08-31T13:09:05.723Z,20.33
2022-08-31T13:11:55.219Z,20.14
2022-08-31T13:14:26.861Z,20.16
2022-08-31T13:17:03.724Z,20.24
2022-08-31T13:19:33.361Z,20.24
2022-08-31T13:22:17.291Z,20.16
2022-08-31T13:24:53.788Z,20.15
2022-08-31T13:27:27.205Z,20.07
2022-08-31T13:29:59.387Z,20.08
2022-08-31T13:32:34.086Z,20.14
2022-08-31T13:35:09.234Z,20.23
2022-08-31T13:38:05.119Z,20.40
2022-08-31T13:40:39.685Z,20.36
2022-08-31T13:43:10.112Z,20.23
2022-08-31T13:45:57.902Z,20.24
2022-08-31T13:48:32.683Z,20.16
2022-08-31T13:51:13.169Z,20.06
2022-08-31T13:54:06.077Z,19.95
2022-08-31T13:56:51.451Z,19.84
2022-08-31T13:59:24.327Z,19.66
2022-08-31T14:02:04.914Z,19.44
2022-08-31T14:05:38.454Z,19.07
2022-08-31T14:08:09.463Z,19.11
2022-08-31T14:10:48.082Z,19.25
2022-08-31T14:13:14.892Z,19.16
2022-08-31T14:15:56.581Z,18.88
2022-08-31T14:18:26.022Z,18.73
2022-08-31T14:21:21.626Z,18.65
2022-08-31T14:24:00.544Z,18.68
2022-08-31T14:26:30.541Z,18.74
2022-08-31T14:29:00.601Z,18.81
2022-08-31T14:31:37.560Z,18.86
2022-08-31T14:34:24.993Z,18.87
2022-08-31T14:37:08.309Z,18.92
2022-08-31T14:39:45.630Z,18.84
2022-08-31T14:42:29.381Z,18.75
2022-08-31T14:45:04.008Z,18.66
2022-08-31T14:47:42.787Z,18.68
2022-08-31T14:50:12.567Z,18.65
2022-08-31T14:52:46.339Z,18.68
2022-08-31T14:55:14.370Z,18.65
2022-08-31T14:57:46.706Z,18.55
2022-08-31T15:00:23.403Z,18.35
2022-08-31T15:02:57.617Z,18.27
2022-08-31T15:05:25.864Z,18.19
2022-08-31T15:07:56.980Z,18.02
2022-08-31T15:10:25.943Z,18.01
2022-08-31T15:12:53.842Z,17.96
2022-08-31T15:15:21.090Z,17.99
2022-08-31T15:17:51.507Z,17.98
2022-08-31T15:20:23.409Z,17.91
2022-08-31T15:22:50.702Z,17.86
2022-08-31T15:25:19.999Z,17.86
2022-08-31T15:27:49.515Z,17.88
2022-08-31T15:30:19.232Z,17.90
2022-08-31T15:32:48.316Z,17.89
2022-08-31T15:35:23.538Z,17.94
2022-08-31T15:38:00.591Z,17.98
2022-08-31T15:40:39.074Z,17.96
2022-08-31T15:43:09.702Z,17.81
2022-08-31T15:45:37.364Z,17.70
2022-08-31T15:48:23.494Z,17.61
2022-08-31T15:51:00.368Z,17.51
2022-08-31T15:53:29.519Z,17.41
2022-08-31T15:56:08.323Z,17.30
2022-08-31T15:58:39.121Z,17.31
2022-08-31T16:01:18.306Z,17.35
2022-08-31T16:04:07.020Z,17.31
2022-08-31T16:06:35.039Z,17.34
2022-08-31T16:09:03.738Z,17.29
2022-08-31T16:11:37.000Z,17.26
2022-08-31T16:14:05.380Z,17.24
2022-08-31T16:16:35.519Z,17.25
2022-08-31T16:19:04.364Z,17.29
2022-08-31T16:21:35.752Z,17.29
2022-08-31T16:24:08.049Z,17.35
2022-08-31T16:26:42.662Z,17.31
2022-08-31T16:29:14.609Z,17.25
2022-08-31T16:31:43.732Z,17.17
2022-08-31T16:34:10.754Z,17.04
2022-08-31T16:36:37.680Z,16.92
2022-08-31T16:39:04.615Z,16.86
2022-08-31T16:41:33.575Z,16.86
2022-08-31T16:44:19.012Z,16.86
2022-08-31T16:46:47.434Z,16.81
2022-08-31T16:49:33.017Z,16.82
2022-08-31T16:52:11.071Z,16.90
2022-08-31T16:54:47.597Z,16.85
2022-08-31T16:57:17.243Z,16.81
2022-08-31T16:59:44.939Z,16.82
2022-08-31T17:02:13.810Z,16.83
2022-08-31T17:04:58.076Z,16.85
2022-08-31T17:07:25.325Z,16.80
2022-08-31T17:09:56.694Z,16.74
2022-08-31T17:12:26.195Z,16.69
2022-08-31T17:14:53.302Z,16.60
2022-08-31T17:17:23.509Z,16.61
2022-08-31T17:19:53.314Z,16.60
2022-08-31T17:22:26.934Z,16.51
2022-08-31T17:24:59.396Z,16.54
2022-08-31T17:27:27.589Z,16.55
2022-08-31T17:30:00.903Z,16.55
2022-08-31T17:32:28.739Z,16.55
2022-08-31T17:34:56.583Z,16.54
2022-08-31T17:37:27.230Z,16.51
2022-08-31T17:39:57.743Z,16.51
2022-08-31T17:42:27.328Z,16.47
2022-08-31T17:44:55.619Z,16.36
2022-08-31T17:47:25.489Z,16.37
2022-08-31T17:49:53.055Z,16.25
2022-08-31T17:52:21.959Z,16.30
2022-08-31T17:54:51.119Z,16.40
2022-08-31T17:57:22.381Z,16.39
2022-08-31T17:59:49.318Z,16.39
2022-08-31T18:02:22.891Z,16.38
2022-08-31T18:04:52.180Z,16.36
2022-08-31T18:07:19.822Z,16.34
2022-08-31T18:09:47.108Z,16.35
2022-08-31T18:12:22.070Z,16.37
2022-08-31T18:14:49.894Z,16.31
2022-08-31T18:17:17.289Z,16.31
2022-08-31T18:19:47.374Z,16.29
2022-08-31T18:22:14.867Z,16.21
2022-08-31T18:24:42.521Z,16.19
2022-08-31T18:27:11.186Z,16.21
2022-08-31T18:29:39.520Z,16.16
2022-08-31T18:32:07.881Z,16.12
2022-08-31T18:34:39.146Z,16.10
2022-08-31T18:37:08.017Z,16.02
2022-08-31T18:39:54.797Z,16.00
2022-08-31T18:42:44.180Z,15.92
2022-08-31T18:45:18.508Z,15.92
2022-08-31T18:48:13.743Z,15.82
2022-08-31T18:50:37.224Z,15.86
2022-08-31T18:53:10.887Z,15.85
2022-08-31T18:55:43.204Z,15.84
2022-08-31T18:58:10.368Z,15.87
2022-08-31T19:00:37.758Z,15.88
2022-08-31T19:03:04.792Z,15.83
2022-08-31T19:05:32.777Z,15.80
2022-08-31T19:08:00.616Z,15.71
2022-08-31T19:10:54.082Z,15.62
2022-08-31T19:13:21.146Z,15.51
2022-08-31T19:15:48.260Z,15.53
2022-08-31T19:18:15.501Z,15.54
2022-08-31T19:20:42.464Z,15.51
2022-08-31T19:23:09.283Z,15.49
2022-08-31T19:25:42.532Z,15.47
2022-08-31T19:28:10.358Z,15.39
2022-08-31T19:30:38.355Z,15.40
2022-08-31T19:33:08.445Z,15.34
2022-08-31T19:35:36.513Z,15.32
2022-08-31T19:38:03.596Z,15.27
2022-08-31T19:40:36.695Z,15.23
2022-08-31T19:45:51.954Z,15.08
2022-08-31T19:48:23.939Z,15.07
2022-08-31T19:50:52.312Z,15.02
2022-08-31T19:53:21.861Z,14.98
2022-08-31T19:55:54.919Z,14.98
2022-08-31T19:58:26.551Z,14.81
2022-08-31T20:01:04.267Z,14.71
2022-08-31T20:03:34.252Z,14.68
2022-08-31T20:06:12.646Z,14.53
2022-08-31T20:08:41.273Z,14.57
2022-08-31T20:11:09.624Z,14.57
2022-08-31T20:13:38.550Z,14.55
2022-08-31T20:16:06.344Z,14.55
2022-08-31T20:18:37.482Z,14.55
2022-08-31T20:21:16.938Z,14.44
2022-08-31T20:23:48.246Z,14.42
2022-08-31T20:26:17.315Z,14.37
2022-08-31T20:28:46.846Z,14.28
2022-08-31T20:31:14.179Z,14.35
2022-08-31T20:33:42.341Z,14.29
2022-08-31T20:36:33.538Z,14.29
2022-08-31T20:39:02.776Z,14.29
2022-08-31T20:41:36.115Z,14.24
2022-08-31T20:44:12.014Z,14.22
2022-08-31T20:47:05.283Z,14.25
2022-08-31T20:49:35.790Z,14.18
2022-08-31T20:52:03.625Z,14.16
2022-08-31T20:54:31.708Z,14.12
2022-08-31T20:57:00.967Z,14.09
2022-08-31T20:59:27.919Z,14.03
2022-08-31T21:02:02.175Z,14.08
2022-08-31T21:04:30.703Z,14.01
2022-08-31T21:06:59.846Z,14.02
2022-08-31T21:09:27.428Z,13.97
2022-08-31T21:11:56.146Z,13.93
2022-08-31T21:14:27.147Z,13.92
2022-08-31T21:16:55.642Z,13.88
2022-08-31T21:19:24.403Z,13.87
2022-08-31T21:21:55.951Z,13.89
2022-08-31T21:24:23.035Z,13.94
2022-08-31T21:26:57.274Z,13.98
2022-08-31T21:29:24.056Z,13.98
2022-08-31T21:31:58.303Z,13.94
2022-08-31T21:34:29.823Z,13.91
2022-08-31T21:36:56.770Z,13.89
2022-08-31T21:39:25.052Z,13.94
2022-08-31T21:41:52.032Z,13.96
2022-08-31T21:44:23.072Z,13.92
2022-08-31T21:46:51.019Z,13.87
2022-08-31T21:49:22.936Z,13.84
2022-08-31T21:51:54.678Z,13.85
2022-08-31T21:54:27.351Z,13.84
2022-08-31T21:57:04.356Z,13.88
2022-08-31T21:59:35.239Z,13.88
2022-08-31T22:02:06.925Z,13.94
2022-08-31T22:04:38.500Z,13.93
2022-08-31T22:07:07.826Z,13.86
2022-08-31T22:09:36.903Z,13.77
2022-08-31T22:12:06.696Z,13.69
2022-08-31T22:14:37.362Z,13.67
2022-08-31T22:17:07.160Z,13.63
2022-08-31T22:19:38.195Z,13.62
2022-08-31T22:22:09.250Z,13.59
2022-08-31T22:24:40.478Z,13.55
2022-08-31T22:27:09.893Z,13.47
2022-08-31T22:29:38.220Z,13.40
2022-08-31T22:32:10.216Z,13.39
2022-08-31T22:34:39.049Z,13.31
2022-08-31T22:37:06.426Z,13.26
2022-08-31T22:39:33.346Z,13.22
2022-08-31T22:42:01.654Z,13.19
2022-08-31T22:44:32.408Z,13.19
2022-08-31T22:46:59.475Z,13.11
2022-08-31T22:49:27.173Z,13.07
2022-08-31T22:51:54.938Z,13.04
2022-08-31T22:54:23.184Z,13.01
2022-08-31T22:56:50.188Z,12.96
2022-08-31T22:59:24.858Z,12.85
2022-08-31T23:01:55.023Z,12.82
2022-08-31T23:04:24.672Z,12.81
2022-08-31T23:06:52.777Z,12.75
2022-08-31T23:09:26.666Z,12.74
2022-08-31T23:11:58.200Z,12.72
2022-08-31T23:14:25.048Z,12.73
2022-08-31T23:16:58.063Z,12.72
2022-08-31T23:19:36.942Z,12.79
2022-08-31T23:22:09.519Z,12.75
2022-08-31T23:24:47.078Z,12.80
2022-08-31T23:27:19.519Z,12.83
2022-08-31T23:29:52.571Z,12.93
2022-08-31T23:32:21.996Z,12.93
2022-08-31T23:34:52.844Z,12.95
2022-08-31T23:37:23.168Z,13.02
2022-08-31T23:39:54.449Z,13.13
2022-08-31T23:42:23.639Z,13.12
2022-08-31T23:44:51.136Z,13.10
2022-08-31T23:47:23.778Z,13.15
2022-08-31T23:49:51.418Z,13.10
2022-08-31T23:52:26.291Z,13.15
2022-08-31T23:54:57.768Z,13.14
2022-08-31T23:57:32.264Z,13.17
